コロンボ の空港の天気 - METARとTAF

バンダラナイケ国際空港 ( VCBI / CMB ) - スリランカ コロンボ
飛行場実況気象(Metar)
観測時間09/22 02:40 IST (09/21 21:10 UTC)
風向・風速西 3m/s
視程9000m
天気現象
全天の8割程度の雲 雲底高度 460m
気温26℃
湿度89%
気圧1009hPa
METARVCBI 212110Z 27006KT 220V330 9000 BKN015 26/24 Q1009 RESHRA NOSIG
過去の天気等 Google飛行場航空写真 Wunderground天気予報

過去48時間のMETAR

飛行場予報(TAF)
発表時間: 9/21 21:10 IST (9/21 15:40 UTC)
予報対象時間: 21日23時 IST ~ 23日5時 IST
風向・風速西南西 5m/s
視程10km以上
少しの雲 雲底高度 550m
22日4時 IST ~ 22日8時 IST に 確率 30% で一時的に
視程7,000m
天気現象弱いしゅう雨
少しの雲 雲底高度 370m
全天の4割程度の雲 雲底高度 490m
全天の8割程度の雲 雲底高度 2,440m
TAF VCBI 211540Z 2118/2224 24010KT 9999 FEW018 TX31/2208Z TN27/2200Z
PROB30 TEMPO 2123/2203 7000 -SHRA FEW012 SCT016 BKN080